Time;durP1;ratioP1;P1;durP2;ratioP2;P2;SDS_P1;SDS_P2;PMS_P1;PMS_P2;Temp;Humidity;BMP_temperature;BMP_pressure;BME280_temperature;BME280_humidity;BME280_pressure;Samples;Min_cycle;Max_cycle;Signal;HPM_P1;HPM_P2
2022/11/20 00:01:55;;;;;;;17.13;11.85;;;;;;;;;;6135099;23;20021;-91
2022/11/20 00:04:21;;;;;;;18.58;11.57;;;;;;;;;;6159723;23;20076;-87
2022/11/20 00:06:47;;;;;;;19.13;10.82;;;;;;;;;;6159565;23;20450;-91
2022/11/20 00:09:13;;;;;;;18.10;11.45;;;;;;;;;;6159593;23;20462;-87
2022/11/20 00:11:39;;;;;;;14.60;9.90;;;;;;;;;;6159572;23;20104;-89
2022/11/20 00:14:05;;;;;;;15.15;10.05;;;;;;;;;;6135054;23;20025;-88
2022/11/20 00:16:32;;;;;;;19.67;11.75;;;;;;;;;;6135238;23;20021;-89
2022/11/20 00:18:58;;;;;;;18.65;11.07;;;;;;;;;;6159743;23;20021;-89
2022/11/20 00:21:25;;;;;;;16.67;11.02;;;;;;;;;;6186323;23;20021;-90
2022/11/20 00:23:52;;;;;;;14.00;10.25;;;;;;;;;;6134458;23;20060;-88
2022/11/20 00:26:19;;;;;;;19.27;10.73;;;;;;;;;;6134717;23;20099;-87
2022/11/20 00:28:49;;;;;;;18.52;11.63;;;;;;;;;;6134321;23;20056;-89
2022/11/20 00:31:16;;;;;;;17.30;11.48;;;;;;;;;;6134687;23;20083;-87
2022/11/20 00:33:43;;;;;;;17.58;12.02;;;;;;;;;;6160931;23;20017;-87
2022/11/20 00:36:16;;;;;;;17.10;10.85;;;;;;;;;;6136392;23;20028;-87
2022/11/20 00:38:43;;;;;;;17.60;11.10;;;;;;;;;;6136226;23;20351;-86
2022/11/20 00:41:10;;;;;;;16.52;11.50;;;;;;;;;;6136475;23;20046;-86
2022/11/20 00:43:36;;;;;;;17.50;11.50;;;;;;;;;;6136172;23;20068;-87
2022/11/20 00:46:03;;;;;;;15.35;10.50;;;;;;;;;;6160723;23;20021;-88
2022/11/20 00:48:29;;;;;;;15.75;10.50;;;;;;;;;;6162061;23;20025;-87
2022/11/20 00:50:56;;;;;;;20.52;10.18;;;;;;;;;;6136067;23;20021;-86
2022/11/20 00:53:22;;;;;;;16.42;10.30;;;;;;;;;;6136244;23;20021;-86
2022/11/20 00:55:54;;;;;;;19.15;11.77;;;;;;;;;;6160382;23;20358;-87
2022/11/20 00:58:21;;;;;;;19.58;9.80;;;;;;;;;;6135845;23;20163;-86
2022/11/20 01:00:47;;;;;;;16.63;11.48;;;;;;;;;;6135908;23;20028;-87
2022/11/20 01:03:13;;;;;;;17.23;11.02;;;;;;;;;;6135934;23;20025;-87
2022/11/20 01:05:39;;;;;;;15.48;10.27;;;;;;;;;;6160607;23;20076;-86
2022/11/20 01:08:05;;;;;;;18.75;9.75;;;;;;;;;;6136247;23;20578;-87
2022/11/20 01:10:31;;;;;;;16.63;10.18;;;;;;;;;;6136207;23;20028;-89
2022/11/20 01:15:42;;;;;;;14.45;10.18;;;;;;;;;;6160453;23;20017;-89
2022/11/20 01:18:08;;;;;;;16.85;11.13;;;;;;;;;;6135941;23;20446;-87
2022/11/20 01:20:37;;;;;;;15.18;10.52;;;;;;;;;;6160446;23;20386;-87
2022/11/20 01:23:03;;;;;;;15.65;10.35;;;;;;;;;;6160400;23;20021;-87
2022/11/20 01:25:29;;;;;;;16.25;10.73;;;;;;;;;;6135905;23;20033;-87
2022/11/20 01:27:56;;;;;;;20.83;11.15;;;;;;;;;;6135990;23;20107;-87
2022/11/20 01:30:22;;;;;;;16.15;10.32;;;;;;;;;;6135910;23;20017;-88
2022/11/20 01:32:48;;;;;;;15.30;10.35;;;;;;;;;;6160270;23;20029;-86
2022/11/20 01:35:14;;;;;;;17.50;10.77;;;;;;;;;;6135905;23;20021;-88
2022/11/20 01:37:40;;;;;;;18.20;10.13;;;;;;;;;;6160191;23;20434;-87
2022/11/20 01:40:06;;;;;;;19.42;10.90;;;;;;;;;;6135675;23;20024;-87
2022/11/20 01:46:02;;;;;;;18.92;12.30;;;1.10;99.90;;;;;;6160014;23;20023;-88
2022/11/20 01:48:36;;;;;;;16.95;10.77;;;;;;;;;;6019161;23;20027;-88
2022/11/20 01:51:04;;;;;;;16.60;10.77;;;;;;;;;;6018981;23;20023;-88
2022/11/20 01:53:32;;;;;;;28.15;11.30;;;;;;;;;;6019216;23;20049;-87
2022/11/20 01:56:00;;;;;;;17.27;10.90;;;;;;;;;;6042784;23;20065;-89
2022/11/20 01:58:29;;;;;;;17.58;9.75;;;;;;;;;;6018802;23;20030;-87
2022/11/20 02:00:55;;;;;;;17.08;11.27;;;;;;;;;;6042585;23;20023;-87
2022/11/20 02:03:21;;;;;;;18.38;11.32;;;;;;;;;;6042697;23;20027;-87
2022/11/20 02:05:52;;;;;;;16.23;9.68;;;;;;;;;;6042890;23;20019;-88
2022/11/20 02:08:18;;;;;;;18.88;11.75;;;;;;;;;;6019025;23;20058;-89
2022/11/20 02:10:44;;;;;;;18.40;11.57;;;;;;;;;;6018934;23;20027;-87
2022/11/20 02:15:55;;;;;;;20.08;12.57;;;;;;;;;;6042710;23;20054;-88
2022/11/20 02:18:22;;;;;;;16.63;11.02;;;;;;;;;;6018705;23;20440;-87
2022/11/20 02:20:50;;;;;;;22.02;12.00;;;;;;;;;;6019088;23;20023;-87
2022/11/20 02:23:22;;;;;;;16.95;10.70;;;;;;;;;;6019479;23;20051;-87
2022/11/20 02:25:48;;;;;;;18.15;10.30;;;;;;;;;;6104300;23;20068;-87
2022/11/20 02:28:20;;;;;;;17.80;11.07;;;;;;;;;;6160632;23;20024;-87
2022/11/20 02:30:49;;;;;;;17.13;10.45;;;;;;;;;;6136627;23;20060;-87
2022/11/20 02:33:15;;;;;;;14.80;10.27;;;;;;;;;;6136187;23;20028;-86
2022/11/20 02:35:43;;;;;;;18.20;10.63;;;;;;;;;;6138834;23;20072;-87
2022/11/20 02:38:09;;;;;;;15.70;9.65;;;;;;;;;;6163408;23;20025;-87
2022/11/20 02:40:35;;;;;;;14.68;10.15;;;;;;;;;;6162973;23;20044;-85
2022/11/20 02:43:01;;;;;;;13.18;9.63;;;;;;;;;;6162868;23;20054;-86
2022/11/20 02:45:27;;;;;;;18.55;10.98;;;;;;;;;;6163307;23;20080;-86
2022/11/20 02:47:53;;;;;;;18.08;10.63;;;;;;;;;;6138292;23;20032;-87
2022/11/20 02:50:19;;;;;;;15.43;9.57;;;;;;;;;;6138305;23;20017;-86
2022/11/20 02:52:45;;;;;;;14.57;10.93;;;;;;;;;;6139141;23;20021;-86
2022/11/20 02:55:12;;;;;;;17.48;10.32;;;;;;;;;;6139386;23;20021;-88
2022/11/20 02:57:38;;;;;;;16.13;9.57;;;;;;;;;;6163445;23;20025;-89
2022/11/20 03:00:04;;;;;;;15.65;8.65;;;;;;;;;;6166136;23;20052;-92
2022/11/20 03:02:31;;;;;;;13.93;10.30;;;;;;;;;;6141397;23;20025;-90
2022/11/20 03:04:57;;;;;;;15.23;9.40;;;;;;;;;;6165697;23;20323;-92
2022/11/20 03:07:23;;;;;;;15.38;9.93;;;;;;;;;;6140402;23;20466;-89
2022/11/20 03:09:49;;;;;;;16.15;10.15;;;;;;;;;;6140775;23;20088;-92
2022/11/20 03:12:16;;;;;;;19.63;12.20;;;;;;;;;;6141235;23;20028;-92
2022/11/20 03:14:42;;;;;;;18.27;9.30;;;;;;;;;;6141142;23;20027;-89
2022/11/20 03:17:08;;;;;;;16.13;9.68;;;;;;;;;;6140524;23;20021;-91
2022/11/20 03:19:34;;;;;;;15.00;9.52;;;;;;;;;;6137338;23;20028;-91
2022/11/20 03:22:00;;;;;;;11.90;9.75;;;;;;;;;;6138666;23;20493;-90
2022/11/20 03:24:26;;;;;;;14.10;8.70;;;;;;;;;;6161542;23;20029;-92
2022/11/20 03:26:52;;;;;;;15.63;9.68;;;;;;;;;;6160506;23;20049;-90
2022/11/20 03:29:18;;;;;;;16.35;10.68;;;;;;;;;;6162177;23;20025;-90
2022/11/20 03:31:44;;;;;;;17.35;10.25;;;;;;;;;;6136376;23;20021;-91
2022/11/20 03:34:11;;;;;;;14.38;9.73;;;;;;;;;;6137264;23;20108;-91
2022/11/20 03:36:41;;;;;;;16.38;10.43;;;;;;;;;;6161088;23;20021;-90
2022/11/20 03:39:07;;;;;;;12.00;8.32;;;;;;;;;;6135943;23;20025;-89
2022/11/20 03:41:37;;;;;;;12.13;8.35;;;;;;;;;;6136111;23;20028;-94
2022/11/20 03:44:04;;;;;;;15.63;9.20;;;;;;;;;;6136088;23;20017;-92
2022/11/20 03:46:30;;;;;;;13.45;9.20;;;;;;;;;;6161280;23;20032;-92
2022/11/20 03:48:57;;;;;;;15.32;9.48;;;;;;;;;;6135880;23;20037;-89
2022/11/20 03:51:24;;;;;;;13.50;9.07;;;;;;;;;;6134817;23;20079;-87
2022/11/20 03:53:51;;;;;;;14.30;9.45;;;;;;;;;;6134695;23;20032;-88
2022/11/20 03:56:18;;;;;;;14.85;9.68;;;;;;;;;;6159109;23;20017;-87
2022/11/20 03:58:45;;;;;;;13.77;9.27;;;;;;;;;;6159303;23;20021;-87
2022/11/20 04:01:11;;;;;;;13.80;9.55;;;;;;;;;;6134611;23;20040;-88
2022/11/20 04:03:38;;;;;;;18.52;9.85;;;;;;;;;;6134965;23;20025;-88
2022/11/20 04:06:12;;;;;;;12.93;9.05;;;;;;;;;;6134911;23;20021;-89
2022/11/20 04:08:38;;;;;;;16.52;9.50;;;;;;;;;;6136752;23;20075;-88
2022/11/20 04:11:15;;;;;;;14.93;9.75;;;;;;;;;;6161305;23;20017;-88
2022/11/20 04:13:42;;;;;;;14.57;9.88;;;;;;;;;;6137340;23;20446;-89
2022/11/20 04:16:09;;;;;;;12.35;9.10;;;;;;;;;;6137034;23;20017;-88
2022/11/20 04:18:35;;;;;;;14.45;8.75;;;;;;;;;;6136864;23;20025;-90
2022/11/20 04:21:01;;;;;;;13.98;9.00;;;;;;;;;;6137686;23;20040;-90
2022/11/20 04:23:27;;;;;;;14.73;9.07;;;;;;;;;;6136852;23;20029;-89
2022/11/20 04:25:53;;;;;;;15.27;8.98;;;;;;;;;;6136657;23;20044;-88
2022/11/20 04:28:19;;;;;;;14.50;8.68;;;;;;;;;;6136754;23;20127;-89
2022/11/20 04:30:46;;;;;;;13.38;9.02;;;;;;;;;;6137733;23;20017;-89
2022/11/20 04:33:12;;;;;;;11.13;8.32;;;;;;;;;;6138895;23;20056;-89
2022/11/20 04:35:38;;;;;;;15.23;8.98;;;;;;;;;;6189998;23;20143;-89
2022/11/20 04:38:04;;;;;;;12.82;8.52;;;;;;;;;;6138137;23;20025;-92
2022/11/20 04:40:31;;;;;;;13.48;8.55;;;;;;;;;;6137260;23;20075;-93
2022/11/20 04:42:57;;;;;;;14.00;9.30;;;;;;;;;;6141367;23;20024;-87
2022/11/20 04:45:23;;;;;;;17.35;10.30;;;;;;;;;;6143633;23;20031;-88
2022/11/20 04:47:49;;;;;;;12.60;9.32;;;;;;;;;;6142766;23;20467;-86
2022/11/20 04:50:15;;;;;;;10.93;8.15;;;;;;;;;;6137447;23;20025;-90
2022/11/20 04:52:41;;;;;;;15.88;10.43;;;;;;;;;;6161277;23;20075;-89
2022/11/20 04:55:08;;;;;;;13.00;8.85;;;;;;;;;;6138209;23;20100;-88
2022/11/20 04:57:34;;;;;;;14.77;9.18;;;;;;;;;;6139344;23;20104;-93
2022/11/20 05:00:00;;;;;;;13.18;8.48;;;;;;;;;;6161045;23;20029;-92
2022/11/20 05:02:26;;;;;;;13.40;8.70;;;;;;;;;;6161197;23;20032;-88
2022/11/20 05:04:52;;;;;;;13.55;7.85;;;;;;;;;;6137413;23;20044;-91
2022/11/20 05:07:18;;;;;;;12.05;7.82;;;;;;;;;;6141667;23;20021;-92
2022/11/20 05:09:44;;;;;;;12.57;8.27;;;;;;;;;;6168140;23;20017;-93
2022/11/20 05:12:10;;;;;;;10.13;7.53;;;;;;;;;;6141804;23;20100;-90
2022/11/20 05:14:36;;;;;;;10.77;7.82;;;;;;;;;;6140106;23;20024;-90
2022/11/20 05:17:02;;;;;;;11.32;7.43;;;;;;;;;;6136517;23;20151;-89
2022/11/20 05:19:28;;;;;;;14.05;8.30;;;;;;;;;;6137354;23;20020;-89
2022/11/20 05:21:54;;;;;;;10.07;7.80;;;;;;;;;;6160842;23;20017;-89
2022/11/20 05:24:21;;;;;;;10.25;7.43;;;;;;;;;;6136163;23;20366;-90
2022/11/20 05:26:47;;;;;;;14.32;8.70;;;;;;;;;;6135862;23;20021;-88
2022/11/20 05:29:13;;;;;;;11.57;7.63;;;;;;;;;;6160641;23;20359;-87
2022/11/20 05:31:40;;;;;;;12.35;7.28;;;;;;;;;;6135981;23;20021;-87
2022/11/20 05:34:06;;;;;;;10.73;6.97;;;;;;;;;;6160436;23;20017;-89
2022/11/20 05:36:32;;;;;;;11.65;7.82;;;;;;;;;;6136233;23;20100;-90
2022/11/20 05:38:58;;;;;;;12.13;8.18;;;;;;;;;;6136012;23;20048;-89
2022/11/20 05:41:45;;;;;;;11.35;7.13;;;;;;;;;;6136112;23;20040;-86
2022/11/20 05:44:11;;;;;;;12.30;7.90;;;;;;;;;;6135656;23;20031;-88
2022/11/20 05:46:37;;;;;;;10.80;7.85;;;;;;;;;;6160200;23;20068;-86
2022/11/20 05:49:03;;;;;;;12.73;7.85;;;;;;;;;;6160181;23;20095;-87
2022/11/20 05:51:29;;;;;;;11.57;7.55;;;;;;;;;;6160000;23;20463;-86
2022/11/20 05:53:58;;;;;;;10.90;7.55;;;;;;;;;;6135650;23;20107;-86
2022/11/20 05:56:24;;;;;;;13.15;7.97;;;;;;;;;;6135701;23;20013;-86
2022/11/20 05:58:50;;;;;;;11.00;8.02;;;;;;;;;;6135369;23;20021;-86
2022/11/20 06:01:18;;;;;;;14.35;8.50;;;;;;;;;;6135239;23;20071;-87
2022/11/20 06:03:47;;;;;;;12.18;7.78;;;;;;;;;;6135361;23;20021;-86
2022/11/20 06:06:14;;;;;;;12.00;7.95;;;;;;;;;;6135212;23;20089;-86
2022/11/20 06:08:40;;;;;;;11.45;7.72;;;;;;;;;;6160022;23;20029;-87
2022/11/20 06:11:07;;;;;;;14.77;8.02;;;;;;;;;;6160082;23;20032;-87
2022/11/20 06:13:33;;;;;;;13.65;8.48;;;;;;;;;;6138724;23;20024;-86
2022/11/20 06:16:02;;;;;;;12.98;8.05;;;;;;;;;;6138738;23;20035;-87
2022/11/20 06:18:29;;;;;;;11.80;8.27;;;;;;;;;;6162485;23;20339;-86
2022/11/20 06:21:04;;;;;;;11.70;7.88;;;;;;;;;;6137281;23;20028;-87
2022/11/20 06:23:31;;;;;;;15.07;7.47;;;;;;;;;;6137694;23;20025;-87
2022/11/20 06:25:58;;;;;;;12.32;8.40;;;;;;;;;;6138124;23;20017;-86
2022/11/20 06:28:24;;;;;;;12.43;7.93;;;;;;;;;;6164701;23;20025;-86
2022/11/20 06:30:50;;;;;;;12.38;7.30;;;;;;;;;;6145799;23;20025;-90
2022/11/20 06:33:16;;;;;;;13.93;8.05;;;;;;;;;;6138905;23;20032;-91
2022/11/20 06:35:42;;;;;;;12.27;7.80;;;;;;;;;;6140779;23;20332;-90
2022/11/20 06:38:08;;;;;;;10.27;7.53;;;;;;;;;;6168099;23;20091;-91
2022/11/20 06:40:40;;;;;;;16.83;8.63;;;;;;;;;;6166944;23;20021;-87
2022/11/20 06:43:15;;;;;;;12.38;8.48;;;;;;;;;;6145566;23;20024;-87
2022/11/20 06:45:56;;;;;;;13.85;8.23;;;;;;;;;;6108498;23;20029;-92
2022/11/20 06:48:37;;;;;;;12.38;8.93;;;;;;;;;;6075171;23;20071;-89
2022/11/20 06:51:04;;;;;;;14.63;7.65;;;;;;;;;;6075136;23;20019;-89
2022/11/20 06:53:30;;;;;;;11.52;8.32;;;;;;;;;;6074446;23;20083;-91
2022/11/20 06:56:00;;;;;;;12.23;7.90;;;;;;;;;;6077302;23;20499;-91
2022/11/20 06:58:30;;;;;;;12.60;7.25;;;;;;;;;;6082975;23;20057;-88
2022/11/20 07:00:59;;;;;;;13.30;8.02;;;;;;;;;;6082625;23;20022;-90
2022/11/20 07:03:25;;;;;;;13.57;8.30;;;;;;;;;;6106340;23;20022;-93
2022/11/20 07:05:52;;;;;;;13.05;8.50;;;;;;;;;;6070817;23;20101;-89
2022/11/20 07:08:18;;;;;;;13.85;8.30;;;;;;;;;;6070739;23;20065;-89
2022/11/20 07:10:44;;;;;;;12.48;7.47;;;;;;;;;;6070738;23;20093;-89
2022/11/20 07:13:10;;;;;;;12.40;8.10;;;;;;;;;;6070858;23;20483;-89
2022/11/20 07:15:36;;;;;;;11.05;7.60;;;;;;;;;;6074759;23;20105;-89
2022/11/20 07:18:02;;;;;;;11.55;7.90;;;;;;;;;;6131861;23;20061;-84
2022/11/20 07:20:29;;;;;;;13.23;7.60;;;;;;;;;;6173328;23;20023;-88
2022/11/20 07:22:58;;;;;;;11.43;7.93;;;;;;;;;;6162111;23;20044;-86
2022/11/20 07:25:25;;;;;;;10.95;7.07;;;;;;;;;;6171558;23;20033;-87
2022/11/20 07:27:59;;;;;;;12.75;7.80;;;;;;;;;;6163290;23;20032;31
2022/11/20 07:30:25;;;;;;;11.38;7.43;;;;;;;;;;6119352;23;20020;-88
2022/11/20 07:32:59;;;;;;;9.65;7.50;;;;;;;;;;6163262;23;20068;-87
2022/11/20 07:35:25;;;;;;;12.43;7.95;;;;;;;;;;6184420;23;20462;-87
2022/11/20 09:42:17;;;;;;;;;;;;;;;;;;;;;
2022/11/20 09:53:34;;;;;;;11.00;7.97;;;;;;;;;;5932370;24;20029;-94
2022/11/20 10:00:44;;;;;;;;;;;;;;;;;;;;;
2022/11/20 10:03:50;;;;;;;12.75;9.13;;;;;;;;;;5746047;25;20026;-94
2022/11/20 10:07:03;;;;;;;11.82;7.75;;;;;;;;;;5745746;24;20032;-94
2022/11/20 10:16:16;;;;;;;12.18;8.20;;;;;;;;;;6185281;22;20026;-93
2022/11/20 10:21:58;;;;;;;12.82;8.90;;;;;;;;;;6221424;22;20031;-91
2022/11/20 10:25:11;;;;;;;;;;;2.30;99.90;;;;;;6189525;22;20025;-93
2022/11/20 10:28:06;;;;;;;;;;;;;;;;;;;;;
2022/11/20 10:31:06;;;;;;;12.77;8.20;;;;;;;;;;6225200;22;20033;-92
2022/11/20 10:37:12;;;;;;;12.50;9.20;;;;;;;;;;6073330;22;20050;-91
2022/11/20 11:07:54;;;;;;;;;;;;;;;;;;;;;
2022/11/20 11:13:46;;;;;;;11.48;8.00;;;;;;;;;;6211661;22;20040;-92
2022/11/20 11:19:28;;;;;;;11.70;7.50;;;;;;;;;;6213723;22;20023;-91
2022/11/20 12:15:09;;;;;;;7.88;5.05;;;;;;;;;;6040693;23;20070;-94
2022/11/20 12:18:26;;;;;;;;;;;;;;;;;;;;;
2022/11/20 12:22:18;;;;;;;9.50;5.22;;;;;;;;;;6191051;23;20036;-96
2022/11/20 12:31:30;;;;;;;9.68;5.45;;;;;;;;;;6220556;22;20389;-94
2022/11/20 12:52:00;;;;;;;6.80;4.38;;;;;;;;;;6235261;22;20032;-92
2022/11/20 13:09:27;;;;;;;;;;;;;;;;;;;;;
2022/11/20 13:12:31;;;;;;;8.32;5.57;;;;;;;;;;5821164;24;20031;-93
2022/11/20 13:15:50;;;;;;;;;;;;;;;;;;;;;
2022/11/20 13:24:23;;;;;;;;;;;;;;;;;;;;;
2022/11/20 13:30:42;;;;;;;6.85;4.90;;;;;;;;;;6116334;23;20022;-92
2022/11/20 13:47:04;;;;;;;7.97;4.47;;;;;;;;;;6190765;22;20029;-95
2022/11/20 13:50:25;;;;;;;8.13;4.82;;;;;;;;;;6017227;23;20028;-93
2022/11/20 13:59:48;;;;;;;;;;;;;;;;;;;;;
2022/11/20 14:06:17;;;;;;;;;;;;;;;;;;;;;
2022/11/20 14:12:41;;;;;;;9.65;6.78;;;;;;;;;;6003052;23;20028;-93
2022/11/20 14:16:08;;;;;;;;;;;;;;;;;;;;;
2022/11/20 14:19:17;;;;;;;7.55;5.10;;;;;;;;;;5881168;24;20028;-92
2022/11/20 14:22:33;;;;;;;8.15;5.00;;;3.90;99.90;;;;;;5823284;24;20026;-91
2022/11/20 14:25:15;;;;;;;6.85;4.90;;;;;;;;;;5817618;24;20034;-91
2022/11/20 14:27:55;;;;;;;7.43;5.07;;;;;;;;;;5817702;24;20034;-90
2022/11/20 14:30:45;;;;;;;7.15;5.13;;;;;;;;;;5817753;24;20035;-91
2022/11/20 14:33:24;;;;;;;7.00;5.60;;;;;;;;;;5817685;24;20066;-93
2022/11/20 14:36:00;;;;;;;7.60;5.68;;;;;;;;;;5817848;24;20497;-92
2022/11/20 14:38:36;;;;;;;8.02;5.45;;;;;;;;;;5817609;24;20423;-95
2022/11/20 14:41:19;;;;;;;10.05;6.55;;;;;;;;;;5844262;24;20364;-92
2022/11/20 14:43:54;;;;;;;7.60;5.18;;;;;;;;;;5853812;24;20033;-91
2022/11/20 14:46:20;;;;;;;9.93;6.65;;;;;;;;;;5853146;24;20029;-93
2022/11/20 14:48:47;;;;;;;8.18;5.93;;;;;;;;;;5875630;24;20514;-92
2022/11/20 14:51:28;;;;;;;8.45;6.32;;;;;;;;;;5902594;23;20027;-90
2022/11/20 14:53:55;;;;;;;6.82;5.32;;;;;;;;;;6001673;23;20029;-90
2022/11/20 14:56:24;;;;;;;7.35;5.68;;;;;;;;;;6070128;23;20070;-90
2022/11/20 14:58:57;;;;;;;7.22;6.00;;;;;;;;;;6055615;23;1144423;-90
2022/11/20 15:01:28;;;;;;;8.25;5.07;;;;;;;;;;6186583;23;20021;-91
2022/11/20 15:04:08;;;;;;;10.40;6.20;;;;;;;;;;6160788;23;20104;-90
2022/11/20 15:06:34;;;;;;;7.28;5.13;;;;;;;;;;6159672;23;20051;-92
2022/11/20 15:09:00;;;;;;;8.23;6.07;;;;;;;;;;6160168;23;20025;-90
2022/11/20 15:11:30;;;;;;;8.05;5.82;;;;;;;;;;6159962;23;20060;-93
2022/11/20 15:13:56;;;;;;;14.18;6.20;;;;;;;;;;6159894;23;20088;-91
2022/11/20 15:16:24;;;;;;;8.90;6.75;;;;;;;;;;6159898;23;20060;-88
2022/11/20 15:18:51;;;;;;;10.35;7.05;;;;;;;;;;6160142;23;20347;-91
2022/11/20 15:21:18;;;;;;;10.52;6.55;;;;;;;;;;6135544;23;20135;-88
2022/11/20 15:23:45;;;;;;;11.70;7.82;;;;;;;;;;6135140;23;20052;-87
2022/11/20 15:26:12;;;;;;;9.73;7.13;;;;;;;;;;6135102;23;20029;-92
2022/11/20 15:28:42;;;;;;;8.95;6.65;;;;;;;;;;6136371;23;20108;-92
2022/11/20 15:31:12;;;;;;;10.35;7.93;;;;;;;;;;6135392;23;20099;-92
2022/11/20 15:33:39;;;;;;;23.55;13.55;;;;;;;;;;6135466;23;20021;-92
2022/11/20 15:36:05;;;;;;;38.50;21.85;;;;;;;;;;6159967;23;20049;-89
2022/11/20 15:38:31;;;;;;;29.90;18.73;;;;;;;;;;6136007;23;20025;-88
2022/11/20 15:40:57;;;;;;;24.92;15.23;;;;;;;;;;6135473;23;20079;-87
2022/11/20 15:43:23;;;;;;;14.27;10.57;;;;;;;;;;6135259;23;20533;-92
2022/11/20 15:45:57;;;;;;;11.38;7.35;;;;;;;;;;6136912;23;20088;-92
2022/11/20 15:48:34;;;;;;;12.52;6.93;;;;;;;;;;6136294;23;20017;-92
2022/11/20 15:51:06;;;;;;;9.35;6.38;;;;;;;;;;6135116;23;20353;-89
2022/11/20 15:53:32;;;;;;;11.57;6.97;;;;;;;;;;6135215;23;20017;-91
2022/11/20 15:55:58;;;;;;;8.07;5.97;;;;;;;;;;6135114;23;20021;-92
2022/11/20 15:58:24;;;;;;;9.80;6.28;;;;;;;;;;6134608;23;20075;-92
2022/11/20 16:00:51;;;;;;;9.00;6.50;;;;;;;;;;6134857;23;20104;-86
2022/11/20 16:03:17;;;;;;;11.55;7.47;;;;;;;;;;6160495;23;20017;-87
2022/11/20 16:05:43;;;;;;;8.43;6.55;;;;;;;;;;6188253;23;20028;-85
2022/11/20 16:08:10;;;;;;;10.13;6.72;;;;;;;;;;6188368;23;20075;-91
2022/11/20 16:10:36;;;;;;;13.27;7.43;;;;;;;;;;6136826;23;20064;-87
2022/11/20 16:15:52;;;;;;;11.45;8.55;;;;;;;;;;6161220;23;20071;-84
2022/11/20 16:18:19;;;;;;;10.15;7.20;;;;;;;;;;6136908;23;21952;-88
2022/11/20 16:20:46;;;;;;;10.02;8.05;;;;;;;;;;6187639;23;20481;-86
2022/11/20 16:23:12;;;;;;;14.88;8.98;;;;;;;;;;6161540;23;20032;-86
2022/11/20 16:25:39;;;;;;;12.77;8.38;;;;;;;;;;6162755;23;20071;-88
2022/11/20 16:28:05;;;;;;;12.93;8.63;;;;;;;;;;6161462;23;20021;-83
2022/11/20 16:30:32;;;;;;;14.00;9.10;;;;;;;;;;6160950;23;20107;-84
2022/11/20 16:32:59;;;;;;;14.77;9.85;;;;;;;;;;6136732;23;20084;-85
2022/11/20 16:35:27;;;;;;;13.23;9.32;;;;;;;;;;6187407;23;20025;-90
2022/11/20 16:37:53;;;;;;;14.65;8.43;;;;;;;;;;6161895;23;20017;-85
2022/11/20 16:40:19;;;;;;;27.60;9.95;;;;;;;;;;6161186;23;20021;-85
2022/11/20 16:42:45;;;;;;;15.48;9.73;;;;;;;;;;6136405;23;20024;-84
2022/11/20 16:45:11;;;;;;;18.05;11.85;;;;;;;;;;6136822;23;20061;-84
2022/11/20 16:47:37;;;;;;;17.20;10.57;;;;;;;;;;6160963;23;20410;-83
2022/11/20 16:50:04;;;;;;;17.10;9.95;;;;;;;;;;6161325;23;20040;-84
2022/11/20 16:52:30;;;;;;;10.88;7.72;;;;;;;;;;6136216;23;20029;-84
2022/11/20 16:54:57;;;;;;;14.38;8.55;;;;;;;;;;6161069;23;20324;-84
2022/11/20 16:57:23;;;;;;;14.02;8.55;;;;;;;;;;6160347;23;20413;-88
2022/11/20 16:59:49;;;;;;;12.75;8.63;;;;;;;;;;6160979;23;20025;-88
2022/11/20 17:02:15;;;;;;;11.32;7.88;;;;;;;;;;6161056;23;20021;-86
2022/11/20 17:04:41;;;;;;;10.15;7.70;;;;;;;;;;6161011;23;20023;-86
2022/11/20 17:07:07;;;;;;;14.48;9.13;;;;;;;;;;6136408;23;20025;-83
2022/11/20 17:09:34;;;;;;;12.85;8.35;;;;;;;;;;6160940;23;20028;-88
2022/11/20 17:12:00;;;;;;;12.38;8.65;;;;;;;;;;6136259;23;20033;-86
2022/11/20 17:14:26;;;;;;;11.98;7.82;;;;;;;;;;6160781;23;20103;-86
2022/11/20 17:16:52;;;;;;;13.70;8.32;;;;;;;;;;6160834;23;20021;-85
2022/11/20 17:19:18;;;;;;;9.73;7.40;;;;;;;;;;6160871;23;20025;-87
2022/11/20 17:21:44;;;;;;;14.60;9.88;;;;;;;;;;6160376;23;20021;-87
2022/11/20 17:24:11;;;;;;;14.55;8.75;;;;;;;;;;6136172;23;20032;-85
2022/11/20 17:26:38;;;;;;;16.48;10.10;;;;;;;;;;6135649;23;20021;-83
2022/11/20 17:29:06;;;;;;;12.38;8.25;;;;;;;;;;6160170;23;20017;-87
2022/11/20 17:31:33;;;;;;;15.43;8.00;;;;;;;;;;6160551;23;20028;-88
2022/11/20 17:34:00;;;;;;;13.30;8.70;;;;;;;;;;6160248;23;20024;-86
2022/11/20 17:36:27;;;;;;;11.63;8.18;;;;;;;;;;6136008;23;20032;-85
2022/11/20 17:38:53;;;;;;;13.35;8.30;;;;;;;;;;6160139;23;20021;-88
2022/11/20 17:41:21;;;;;;;13.45;9.88;;;;;;;;;;6136113;23;20507;-88
2022/11/20 17:43:47;;;;;;;13.57;9.18;;;;;;;;;;6160351;23;20481;-88
2022/11/20 17:46:18;;;;;;;13.75;9.38;;;;;;;;;;6161229;23;20029;-86
2022/11/20 17:48:44;;;;;;;11.43;8.30;;;;;;;;;;6160464;23;20032;-88
2022/11/20 17:51:15;;;;;;;15.70;9.18;;;;;;;;;;6135932;23;20017;-89
2022/11/20 17:53:42;;;;;;;16.98;9.75;;;;;;;;;;6135741;23;20051;-86
2022/11/20 17:58:53;;;;;;;15.38;9.50;;;;;;;;;;6159781;23;20029;-87
2022/11/20 18:01:19;;;;;;;13.43;9.30;;;;;;;;;;6135629;23;20028;-86
2022/11/20 18:03:46;;;;;;;16.80;10.45;;;;;;;;;;6136187;23;20320;-85
2022/11/20 18:06:16;;;;;;;14.50;9.38;;;;;;;;;;6135410;23;20075;-88
2022/11/20 18:08:42;;;;;;;15.82;10.30;;;;;;;;;;6135546;23;20025;-84
2022/11/20 18:11:11;;;;;;;14.23;9.48;;;;;;;;;;6160151;23;20087;-86
2022/11/20 18:16:23;;;;;;;14.77;10.25;;;;;;;;;;6159984;23;20332;-86
2022/11/20 18:18:49;;;;;;;17.10;10.65;;;;;;;;;;6135279;23;20021;-84
2022/11/20 18:21:15;;;;;;;17.20;10.50;;;;;;;;;;6135609;23;20103;-84
2022/11/20 18:23:42;;;;;;;14.00;9.15;;;;;;;;;;6135396;23;20155;-84
2022/11/20 18:26:08;;;;;;;13.95;9.40;;;;;;;;;;6134979;23;20525;-86
2022/11/20 18:28:37;;;;;;;13.60;9.10;;;;;;;;;;6159691;23;20021;-89
2022/11/20 18:31:07;;;;;;;21.33;11.00;;;;;;;;;;6159830;23;20029;-86
2022/11/20 18:33:33;;;;;;;14.73;9.73;;;;;;;;;;6135201;23;20068;-84
2022/11/20 18:36:35;;;;;;;14.88;9.90;;;;;;;;;;6135467;23;20031;-87
2022/11/20 18:39:01;;;;;;;13.93;9.45;;;;;;;;;;6071192;23;20018;-87
2022/11/20 18:47:02;;;;;;;12.35;8.90;;;;;;;;;;6070969;23;20458;-84
2022/11/20 18:49:29;;;;;;;13.65;9.68;;;;;;;;;;6070943;23;20018;-83
2022/11/20 18:51:55;;;;;;;15.25;10.18;;;;;;;;;;6070942;23;20018;-86
2022/11/20 18:54:21;;;;;;;15.13;11.38;;;;;;;;;;6071190;23;20029;-87
2022/11/20 18:56:47;;;;;;;12.73;9.02;;;;;;;;;;6070812;23;20018;-86
2022/11/20 18:59:13;;;;;;;16.85;10.68;;;;;;;;;;6070590;23;20106;-85
2022/11/20 19:01:39;;;;;;;15.50;9.13;;;;;;;;;;6070828;23;20018;-84
2022/11/20 19:04:07;;;;;;;16.50;10.43;;;;;;;;;;6070946;23;20106;-88
2022/11/20 19:06:33;;;;;;;15.32;9.48;;;;;;;;;;6071747;23;20018;-85
2022/11/20 19:08:59;;;;;;;13.15;10.15;;;;;;;;;;6070877;23;20187;-83
2022/11/20 19:11:25;;;;;;;13.80;9.57;;;;;;;;;;6070750;23;20019;-84
2022/11/20 19:13:51;;;;;;;17.08;10.18;;;;;;;;;;6148312;23;20027;-82
2022/11/20 19:16:19;;;;;;;12.63;9.57;;;;;;;;;;6159497;23;20017;-87
2022/11/20 19:18:47;;;;;;;17.77;10.25;;;;;;;;;;6135399;23;20025;-84
2022/11/20 19:21:20;;;;;;;16.38;10.98;;;;;;;;;;6162103;23;20076;-86
2022/11/20 19:23:53;;;;;;;14.05;9.95;;;;;;;;;;6135212;23;20017;-84
2022/11/20 19:26:20;;;;;;;14.13;9.98;;;;;;;;;;6159588;23;20040;-87
2022/11/20 19:28:46;;;;;;;16.58;11.32;;;;;;;;;;6185781;23;20068;-87
2022/11/20 19:31:14;;;;;;;18.85;11.85;;;;;;;;;;6186392;23;20024;-84
2022/11/20 19:33:41;;;;;;;15.75;10.80;;;;;;;;;;6135128;23;20064;-87
2022/11/20 19:36:13;;;;;;;15.77;10.85;;;;;;;;;;6134996;23;20101;-83
2022/11/20 19:38:40;;;;;;;17.92;11.93;;;;;;;;;;6160708;23;20024;-87
2022/11/20 19:41:06;;;;;;;16.25;10.88;;;;;;;;;;6138313;23;20339;-88
2022/11/20 19:43:33;;;;;;;14.95;10.82;;;;;;;;;;6162016;23;20028;-87
2022/11/20 19:46:02;;;;;;;15.55;10.77;;;;;;;;;;6163861;23;20017;-90
2022/11/20 19:48:39;;;;;;;17.65;11.35;;;;;;;;;;6137502;23;20375;-91
2022/11/20 19:51:22;;;;;;;16.60;10.00;;;;;;;;;;6137520;23;20013;-90
2022/11/20 19:53:48;;;;;;;17.92;11.80;;;;;;;;;;6163349;23;20060;-91
2022/11/20 19:56:15;;;;;;;16.63;10.23;;;;;;;;;;6136811;23;20017;-91
2022/11/20 19:58:44;;;;;;;15.38;10.55;;;;;;;;;;6161047;23;20061;-91
2022/11/20 20:01:14;;;;;;;20.10;11.77;;;;;;;;;;6137372;23;20025;-91
2022/11/20 20:03:43;;;;;;;19.50;11.00;;;;;;;;;;6137469;23;20029;-90
2022/11/20 20:06:17;;;;;;;18.88;10.05;;;;;;;;;;6136576;23;20021;-91
2022/11/20 20:08:43;;;;;;;15.30;11.15;;;;;;;;;;6161822;23;20020;-91
2022/11/20 20:11:11;;;;;;;18.92;11.82;;;;;;;;;;6137358;23;20122;-90
2022/11/20 20:13:38;;;;;;;17.77;11.02;;;;;;;;;;6161964;23;20021;-90
2022/11/20 20:16:08;;;;;;;23.65;11.77;;;;;;;;;;6137523;23;20028;-91
2022/11/20 20:18:35;;;;;;;18.10;11.43;;;;;;;;;;6137699;23;20021;-91
2022/11/20 20:21:05;;;;;;;18.02;11.88;;;;;;;;;;6138089;23;20358;-90
2022/11/20 20:23:31;;;;;;;19.48;11.88;;;;;;;;;;6162383;23;20013;-90
2022/11/20 20:25:59;;;;;;;23.65;13.02;;;;;;;;;;6161170;23;20021;-88
2022/11/20 20:28:25;;;;;;;19.55;12.27;;;;;;;;;;6136560;23;20021;-88
2022/11/20 20:30:51;;;;;;;22.42;12.38;;;;;;;;;;6136797;23;20075;-87